Gassim, Saudi Arabia
Current Conditions -  °F | °C
As of 8:00 PM on Saturday 25 Oct 2014 (Local Time) from OEGS Reporting Station
Clear Clear  
Wind Chill: 84°   Ceiling: Unl
Heat Index: 84°   Visibility: 6mi
Dew Point: 46°   Wind: 5mph
Humidity: 27%   Direction: 160°SSE
Pressure: 29.91"   Gusts: NA
Location:  26.3°N, 43.77°E
Report Text: OEGS 251700Z 16004KT CAVOK 29/08 Q1013
Loading
Personal Weather Stations






























Interactive Weather Map
Tropical Storm Tracking
New forecast layout! Learn more

10-Day Weather Forecast

Advertisements
Track Severe Weather on mobile